Time;durP1;ratioP1;P1;durP2;ratioP2;P2;SDS_P1;SDS_P2;PMS_P1;PMS_P2;Temp;Humidity;BMP_temperature;BMP_pressure;BME280_temperature;BME280_humidity;BME280_pressure;Samples;Min_cycle;Max_cycle;Signal;HPM_P1;HPM_P2
2024/01/20 00:00:14;;;;;;;16.13;7.53;;;;;;;;;;5076580;28;20045;-84
2024/01/20 00:02:41;;;;;;;20.20;7.88;;;;;;;;;;5076712;28;20083;-84
2024/01/20 00:05:11;;;;;;;20.52;10.68;;;;;;;;;;5077061;28;20056;-84
2024/01/20 00:07:39;;;;;;;22.83;8.70;;;;;;;;;;5076782;28;20064;-84
2024/01/20 00:10:10;;;;;;;24.60;9.18;;;;;;;;;;5074968;28;20052;-84
2024/01/20 00:12:42;;;;;;;15.75;7.60;;;;;;;;;;5075216;28;20135;-84
2024/01/20 00:15:11;;;;;;;20.43;8.80;;;;;;;;;;5074902;28;20041;-84
2024/01/20 00:17:39;;;;;;;19.80;8.20;;;;;;;;;;5075350;28;20418;-84
2024/01/20 00:20:09;;;;;;;18.45;8.25;;;;;;;;;;5075332;28;20048;-84
2024/01/20 00:22:37;;;;;;;18.73;8.00;;;;;;;;;;5076147;28;20048;-84
2024/01/20 00:25:05;;;;;;;16.50;7.68;;;;;;;;;;5074156;28;20131;-84
2024/01/20 00:27:33;;;;;;;19.17;8.65;;;;;;;;;;5075565;28;20055;-84
2024/01/20 00:30:01;;;;;;;17.45;8.05;;;;;;;;;;5070287;28;20071;-84
2024/01/20 00:32:29;;;;;;;18.35;8.27;;;;;;;;;;5078927;28;20044;-84
2024/01/20 00:34:57;;;;;;;18.95;9.43;;;;;;;;;;5078583;28;20051;-84
2024/01/20 00:37:37;;;;;;;20.35;8.23;;;;;;;;;;5078958;28;20052;-84
2024/01/20 00:40:06;;;;;;;16.80;7.65;;;;;;;;;;5079751;28;20049;-84
2024/01/20 00:42:34;;;;;;;29.77;20.08;;;;;;;;;;5078516;28;20106;-84
2024/01/20 00:45:02;;;;;;;18.83;8.52;;;;;;;;;;5078261;28;20480;-84
2024/01/20 00:47:29;;;;;;;19.80;8.75;;;;;;;;;;5078135;28;20048;-84
2024/01/20 00:49:56;;;;;;;23.60;12.73;;;;;;;;;;5077729;28;20132;-84
2024/01/20 00:52:24;;;;;;;18.23;7.93;;;;;;;;;;5079294;28;20098;-84
2024/01/20 00:54:51;;;;;;;11.98;6.78;;;;;;;;;;5077815;28;20418;-83
2024/01/20 00:57:19;;;;;;;14.80;5.80;;;;;;;;;;5070006;28;20056;-84
2024/01/20 00:59:47;;;;;;;15.93;7.95;;;;;;;;;;5079082;28;20528;-83
2024/01/20 01:02:16;;;;;;;13.07;6.78;;;;;;;;;;5077634;28;20475;-84
2024/01/20 01:04:44;;;;;;;20.50;8.18;;;;;;;;;;5078234;28;20078;-84
2024/01/20 01:07:12;;;;;;;20.55;9.55;;;;;;;;;;5077268;28;20060;-84
2024/01/20 01:09:39;;;;;;;21.90;9.13;;;;;;;;;;5075330;28;20547;-87
2024/01/20 01:12:06;;;;;;;23.23;8.90;;;;;;;;;;5075539;28;20045;-86
2024/01/20 01:14:34;;;;;;;18.55;8.77;;;;;;;;;;5075440;28;20052;-86
2024/01/20 01:17:01;;;;;;;13.60;7.70;;;;;;;;;;5076319;28;20052;-86
2024/01/20 01:19:28;;;;;;;16.65;8.77;;;;;;;;;;5076038;28;20048;-86
2024/01/20 01:21:55;;;;;;;20.75;10.02;;;;;;;;;;5074890;28;20055;-86
2024/01/20 01:24:22;;;;;;;22.88;9.05;;;;;;;;;;5074564;28;20166;-86
2024/01/20 01:26:50;;;;;;;20.10;9.02;;;;;;;;;;5071546;28;20049;-86
2024/01/20 01:29:18;;;;;;;22.45;9.38;;;;;;;;;;5066359;28;20048;-86
2024/01/20 01:31:45;;;;;;;20.55;8.95;;;;;;;;;;5074420;28;20497;-86
2024/01/20 01:34:13;;;;;;;19.73;8.55;;;;;;;;;;5074271;28;20105;-86
2024/01/20 01:36:40;;;;;;;16.98;8.65;;;;;;;;;;5074691;28;20049;-86
2024/01/20 01:39:08;;;;;;;17.92;8.52;;;;;;;;;;5073916;28;20044;-86
2024/01/20 01:41:35;;;;;;;15.35;7.53;;;;;;;;;;5074644;28;20048;-86
2024/01/20 01:44:02;;;;;;;14.50;7.03;;;;;;;;;;5073224;28;20480;-86
2024/01/20 01:46:30;;;;;;;14.57;7.43;;;;;;;;;;5067889;28;20515;-86
2024/01/20 01:48:58;;;;;;;10.90;5.97;;;;;;;;;;5075696;28;20053;-86
2024/01/20 01:51:25;;;;;;;12.25;6.22;;;;;;;;;;5074290;28;20067;-86
2024/01/20 01:53:54;;;;;;;15.38;6.05;;;;;;;;;;5066206;28;20098;-83
2024/01/20 01:56:21;;;;;;;14.30;6.72;;;;;;;;;;5075845;28;20132;-83
2024/01/20 01:58:50;;;;;;;14.55;6.72;;;;;;;;;;5076815;28;20492;-83
2024/01/20 02:01:17;;;;;;;11.25;5.68;;;;;;;;;;5076763;28;20041;-83
2024/01/20 02:03:45;;;;;;;15.65;6.82;;;;;;;;;;5077749;28;20052;-84
2024/01/20 02:06:13;;;;;;;17.20;7.65;;;;;;;;;;5076571;28;20405;-84
2024/01/20 02:08:40;;;;;;;12.35;6.68;;;;;;;;;;5076260;28;20075;-83
2024/01/20 02:11:08;;;;;;;15.70;6.35;;;;;;;;;;5076290;28;20051;-84
2024/01/20 02:13:36;;;;;;;11.73;6.50;;;;;;;;;;5076545;28;20100;-83
2024/01/20 02:16:04;;;;;;;9.35;5.82;;;;;;;;;;5077277;28;20049;-84
2024/01/20 02:18:31;;;;;;;11.45;6.05;;;;;;;;;;5077727;28;20045;-83
2024/01/20 02:20:59;;;;;;;11.25;6.03;;;;;;;;;;5076137;28;20080;-83
2024/01/20 02:23:26;;;;;;;11.52;5.68;;;;;;;;;;5077251;28;20127;-84
2024/01/20 02:25:53;;;;;;;10.32;5.65;;;;;;;;;;5075805;28;20148;-83
2024/01/20 02:28:21;;;;;;;9.02;5.13;;;;;;;;;;5059470;28;20060;-83
2024/01/20 02:30:48;;;;;;;12.82;6.22;;;;;;;;;;5076258;28;20460;-83
2024/01/20 02:33:15;;;;;;;12.85;6.47;;;;;;;;;;5074991;28;20041;-83
2024/01/20 02:35:43;;;;;;;13.27;5.88;;;;;;;;;;5075736;28;20059;-83
2024/01/20 02:38:10;;;;;;;14.88;7.65;;;;;;;;;;5075104;28;20109;-83
2024/01/20 02:40:38;;;;;;;13.70;6.35;;;;;;;;;;5075729;28;20048;-83
2024/01/20 02:43:06;;;;;;;10.82;6.28;;;;;;;;;;5075498;28;20048;-84
2024/01/20 02:45:33;;;;;;;9.27;5.43;;;;;;;;;;5072594;28;20057;-83
2024/01/20 02:48:00;;;;;;;12.18;5.88;;;;;;;;;;5064763;28;20056;-83
2024/01/20 02:50:28;;;;;;;15.10;6.47;;;;;;;;;;5074805;28;20064;-84
2024/01/20 02:52:55;;;;;;;12.65;6.63;;;;;;;;;;5066511;28;20049;-83
2024/01/20 02:55:22;;;;;;;11.45;6.10;;;;;;;;;;5075812;28;20049;-83
2024/01/20 02:57:50;;;;;;;14.48;6.22;;;;;;;;;;5075452;28;20051;-83
2024/01/20 03:00:17;;;;;;;12.75;6.03;;;;;;;;;;5075634;28;20055;-83
2024/01/20 03:02:45;;;;;;;8.70;5.55;;;;;;;;;;5076999;28;20052;-84
2024/01/20 03:05:12;;;;;;;12.45;6.28;;;;;;;;;;5075505;28;20049;-83
2024/01/20 03:07:39;;;;;;;11.80;6.35;;;;;;;;;;5076971;28;20068;-83
2024/01/20 03:10:07;;;;;;;14.52;6.13;;;;;;;;;;5075036;28;20052;-83
2024/01/20 03:12:35;;;;;;;11.20;5.63;;;;;;;;;;5075550;28;20049;-83
2024/01/20 03:15:02;;;;;;;13.00;6.18;;;;;;;;;;5075893;28;20452;-83
2024/01/20 03:17:30;;;;;;;18.33;6.07;;;;;;;;;;5075858;28;20052;-83
2024/01/20 03:19:57;;;;;;;12.32;6.07;;;;;;;;;;5075222;28;20041;-83
2024/01/20 03:22:24;;;;;;;13.05;5.63;;;;;;;;;;5074773;28;20135;-83
2024/01/20 03:24:52;;;;;;;18.35;6.22;;;;;;;;;;5075043;28;20086;-83
2024/01/20 03:27:19;;;;;;;11.80;6.20;;;;;;;;;;5066888;28;20067;-83
2024/01/20 03:29:46;;;;;;;10.57;5.82;;;;;;;;;;5075346;28;20068;-83
2024/01/20 03:32:14;;;;;;;12.85;6.05;;;;;;;;;;5076858;28;20059;-83
2024/01/20 03:34:41;;;;;;;13.98;6.78;;;;;;;;;;5075127;28;20083;-83
2024/01/20 03:37:08;;;;;;;15.00;6.30;;;;;;;;;;5075761;28;20040;-83
2024/01/20 03:39:35;;;;;;;13.30;5.85;;;;;;;;;;5074820;28;20044;-83
2024/01/20 03:42:03;;;;;;;11.73;6.70;;;;;;;;;;5074338;28;20048;-83
2024/01/20 03:44:30;;;;;;;15.63;6.50;;;;;;;;;;5075699;28;20071;-83
2024/01/20 03:46:58;;;;;;;12.43;6.32;;;;;;;;;;5075952;28;20055;-83
2024/01/20 03:49:25;;;;;;;12.25;5.90;;;;;;;;;;5074930;28;20490;-83
2024/01/20 03:51:53;;;;;;;13.25;5.97;;;;;;;;;;5074543;28;20106;-83
2024/01/20 03:54:20;;;;;;;14.52;5.57;;;;;;;;;;5074533;28;20076;-83
2024/01/20 03:56:47;;;;;;;18.98;7.20;;;;;;;;;;5075048;28;20413;-83
2024/01/20 03:59:14;;;;;;;13.52;6.72;;;;;;;;;;5074459;28;20048;-83
2024/01/20 04:01:42;;;;;;;15.05;6.75;;;;;;;;;;5074651;28;20041;-83
2024/01/20 04:04:09;;;;;;;15.63;6.43;;;;;;;;;;5075040;28;20555;-83
2024/01/20 04:06:37;;;;;;;18.58;7.53;;;;;;;;;;5075337;28;20060;-83
2024/01/20 04:09:04;;;;;;;16.85;7.38;;;;;;;;;;5074317;28;20048;-83
2024/01/20 04:11:32;;;;;;;16.63;6.70;;;;;;;;;;5074132;28;20052;-83
2024/01/20 04:13:59;;;;;;;17.23;7.10;;;;;;;;;;5074749;28;20051;-83
2024/01/20 04:16:26;;;;;;;11.27;6.03;;;;;;;;;;5073748;28;20114;-83
2024/01/20 04:18:54;;;;;;;16.58;7.40;;;;;;;;;;5074766;28;20048;-83
2024/01/20 04:21:22;;;;;;;14.32;7.18;;;;;;;;;;5066525;28;20041;-83
2024/01/20 04:23:50;;;;;;;15.85;6.97;;;;;;;;;;5074590;28;20482;-83
2024/01/20 04:26:17;;;;;;;16.08;7.25;;;;;;;;;;5073863;28;20060;-83
2024/01/20 04:28:44;;;;;;;13.65;7.50;;;;;;;;;;5074059;28;20049;-83
2024/01/20 04:31:11;;;;;;;21.55;8.10;;;;;;;;;;5074921;28;20102;-83
2024/01/20 04:33:40;;;;;;;16.48;6.95;;;;;;;;;;5073599;28;20044;-83
2024/01/20 04:36:08;;;;;;;14.50;7.30;;;;;;;;;;5074374;28;20048;-85
2024/01/20 04:38:36;;;;;;;13.00;7.50;;;;;;;;;;5057892;28;20051;-85
2024/01/20 04:41:04;;;;;;;13.98;7.53;;;;;;;;;;5061383;28;20048;-85
2024/01/20 04:43:32;;;;;;;19.00;8.30;;;;;;;;;;5073005;28;20045;-85
2024/01/20 04:45:59;;;;;;;12.20;6.57;;;;;;;;;;5071900;28;20131;-85
2024/01/20 04:48:27;;;;;;;15.13;6.65;;;;;;;;;;5071715;28;20053;-85
2024/01/20 04:50:54;;;;;;;11.88;6.22;;;;;;;;;;5071577;28;20049;-84
2024/01/20 04:53:21;;;;;;;15.85;7.03;;;;;;;;;;5071217;28;20040;-85
2024/01/20 04:55:48;;;;;;;16.33;8.02;;;;;;;;;;5071495;28;20047;-85
2024/01/20 04:58:16;;;;;;;12.98;7.28;;;;;;;;;;5072906;28;20048;-85
2024/01/20 05:00:44;;;;;;;15.23;7.15;;;;;;;;;;5071514;28;20045;-84
2024/01/20 05:03:12;;;;;;;12.75;6.93;;;;;;;;;;5071450;28;20080;-85
2024/01/20 05:05:39;;;;;;;13.05;6.40;;;;;;;;;;5071652;28;20048;-86
2024/01/20 05:08:07;;;;;;;11.85;6.15;;;;;;;;;;5071250;28;20048;-85
2024/01/20 05:10:34;;;;;;;12.90;6.22;;;;;;;;;;5072654;28;20048;-85
2024/01/20 05:13:03;;;;;;;13.57;6.72;;;;;;;;;;5071577;28;20079;-85
2024/01/20 05:15:31;;;;;;;14.35;6.45;;;;;;;;;;5076088;28;20132;-85
2024/01/20 05:17:58;;;;;;;9.05;5.88;;;;;;;;;;5076382;28;20052;-84
2024/01/20 05:20:26;;;;;;;11.90;6.40;;;;;;;;;;5075030;28;20048;-84
2024/01/20 05:22:53;;;;;;;13.90;6.88;;;;;;;;;;5074888;28;20040;-85
2024/01/20 05:25:20;;;;;;;15.20;7.30;;;;;;;;;;5074810;28;20044;-85
2024/01/20 05:27:48;;;;;;;16.33;6.63;;;;;;;;;;5068601;28;20053;-84
2024/01/20 05:30:15;;;;;;;14.30;6.93;;;;;;;;;;5074278;28;20512;-85
2024/01/20 05:32:42;;;;;;;14.43;6.60;;;;;;;;;;5076887;28;20127;-82
2024/01/20 05:35:12;;;;;;;14.40;7.10;;;;;;;;;;5077302;28;20059;-82
2024/01/20 05:37:39;;;;;;;13.73;7.05;;;;;;;;;;5077033;28;20123;-82
2024/01/20 05:40:07;;;;;;;14.52;6.85;;;;;;;;;;5077311;28;20204;-82
2024/01/20 05:42:34;;;;;;;10.90;6.38;;;;;;;;;;5076927;28;20114;-83
2024/01/20 05:45:02;;;;;;;14.80;6.72;;;;;;;;;;5077037;28;20048;-82
2024/01/20 05:47:29;;;;;;;15.20;7.05;;;;;;;;;;5076758;28;20052;-82
2024/01/20 05:49:56;;;;;;;16.55;7.22;;;;;;;;;;5076512;28;20044;-82
2024/01/20 05:52:24;;;;;;;12.98;6.57;;;;;;;;;;5076410;28;20497;-82
2024/01/20 05:54:51;;;;;;;13.38;6.50;;;;;;;;;;5076587;28;20048;-83
2024/01/20 05:57:18;;;;;;;11.80;6.28;;;;;;;;;;5076729;28;20052;-82
2024/01/20 05:59:47;;;;;;;11.70;6.85;;;;;;;;;;5076615;28;20040;-82
2024/01/20 06:02:14;;;;;;;14.38;7.05;;;;;;;;;;5076666;28;20049;-82
2024/01/20 06:04:43;;;;;;;15.90;7.10;;;;;;;;;;5076439;28;20044;-82
2024/01/20 06:07:10;;;;;;;12.63;6.10;;;;;;;;;;5076707;28;20052;-82
2024/01/20 06:09:38;;;;;;;12.60;7.35;;;;;;;;;;5076631;28;20064;-82
2024/01/20 06:12:05;;;;;;;12.85;6.55;;;;;;;;;;5076542;28;20512;-82
2024/01/20 06:14:32;;;;;;;10.45;6.10;;;;;;;;;;5076977;28;20040;-82
2024/01/20 06:17:00;;;;;;;16.48;6.47;;;;;;;;;;5075945;28;20060;-83
2024/01/20 06:19:27;;;;;;;10.80;5.97;;;;;;;;;;5076790;28;20222;-82
2024/01/20 06:21:54;;;;;;;8.30;5.38;;;;;;;;;;5077624;28;20044;-82
2024/01/20 06:24:21;;;;;;;15.07;6.43;;;;;;;;;;5076709;28;20086;-82
2024/01/20 06:26:49;;;;;;;10.80;5.75;;;;;;;;;;5077901;28;20045;-82
2024/01/20 06:29:16;;;;;;;12.35;6.15;;;;;;;;;;5076074;28;20052;-82
2024/01/20 06:31:43;;;;;;;10.13;6.20;;;;;;;;;;5077029;28;20052;-83
2024/01/20 06:34:11;;;;;;;9.60;6.10;;;;;;;;;;5075744;28;20044;-82
2024/01/20 06:36:38;;;;;;;14.10;6.53;;;;;;;;;;5077960;28;20110;-82
2024/01/20 06:39:05;;;;;;;14.68;7.53;;;;;;;;;;5076408;28;20676;-82
2024/01/20 06:41:33;;;;;;;26.25;12.85;;;;;;;;;;5077975;28;20048;-82
2024/01/20 06:44:00;;;;;;;29.20;12.32;;;;;;;;;;5076492;28;20056;-82
2024/01/20 06:46:28;;;;;;;25.88;13.32;;;;;;;;;;5076578;28;20048;-82
2024/01/20 06:48:55;;;;;;;33.33;13.57;;;;;;;;;;5076553;28;20072;-82
2024/01/20 06:51:27;;;;;;;38.40;24.65;;;;;;;;;;5077491;28;20049;-82
2024/01/20 06:53:57;;;;;;;25.17;13.07;;;;;;;;;;5076656;28;20494;-82
2024/01/20 06:56:25;;;;;;;17.63;10.10;;;;;;;;;;5078311;28;20055;-82
2024/01/20 06:58:56;;;;;;;25.80;11.68;;;;;;;;;;5077638;28;20044;-82
2024/01/20 07:01:24;;;;;;;37.92;21.42;;;;;;;;;;5077328;28;20044;-82
2024/01/20 07:03:51;;;;;;;21.85;11.60;;;;;;;;;;5076955;28;20102;-82
2024/01/20 07:06:23;;;;;;;27.23;15.98;;;;;;;;;;5078392;28;20052;-82
2024/01/20 07:08:52;;;;;;;26.17;13.27;;;;;;;;;;5077144;28;20094;-82
2024/01/20 07:11:19;;;;;;;25.67;14.50;;;;;;;;;;5077628;28;20460;-82
2024/01/20 07:13:47;;;;;;;22.83;12.52;;;;;;;;;;5078032;28;20052;-82
2024/01/20 07:16:15;;;;;;;28.85;15.45;;;;;;;;;;5078171;28;20114;-84
2024/01/20 07:18:42;;;;;;;23.98;13.55;;;;;;;;;;5076513;28;20048;-82
2024/01/20 07:21:26;;;;;;;22.15;13.63;;;;;;;;;;5076812;28;20048;-83
2024/01/20 07:23:56;;;;;;;21.92;12.25;;;;;;;;;;5073402;28;20056;-84
2024/01/20 07:26:23;;;;;;;23.80;12.98;;;;;;;;;;5073287;28;20055;-85
2024/01/20 07:28:50;;;;;;;19.90;12.43;;;;;;;;;;5073125;28;20101;-86
2024/01/20 07:31:18;;;;;;;25.92;14.20;;;;;;;;;;5073122;28;20056;-84
2024/01/20 07:33:46;;;;;;;23.88;12.27;;;;;;;;;;5072862;28;20059;-84
2024/01/20 07:36:14;;;;;;;22.42;11.82;;;;;;;;;;5072303;28;20062;-85
2024/01/20 07:38:41;;;;;;;22.85;12.95;;;;;;;;;;5072916;28;20048;-85
2024/01/20 07:41:09;;;;;;;22.60;11.00;;;;;;;;;;5072151;28;20052;-84
2024/01/20 07:43:37;;;;;;;19.13;9.38;;;;;;;;;;5072498;28;20136;-84
2024/01/20 07:46:04;;;;;;;19.02;10.20;;;;;;;;;;5072249;28;20105;-84
2024/01/20 07:48:32;;;;;;;18.70;10.40;;;;;;;;;;5072256;28;20076;-84
2024/01/20 07:50:59;;;;;;;26.60;15.30;;;;;;;;;;5072718;28;20063;-84
2024/01/20 07:53:27;;;;;;;26.25;14.88;;;;;;;;;;5073817;28;20428;-85
2024/01/20 07:55:55;;;;;;;26.20;15.50;;;;;;;;;;5074024;28;20504;-85
2024/01/20 07:58:22;;;;;;;17.17;10.00;;;;;;;;;;5074262;28;20506;-85
2024/01/20 08:00:50;;;;;;;16.70;8.75;;;;;;;;;;5073886;28;20047;-84
2024/01/20 08:03:17;;;;;;;16.33;10.40;;;;;;;;;;5073424;28;20123;-85
2024/01/20 08:05:45;;;;;;;21.88;9.27;;;;;;;;;;5073648;28;20048;-84
2024/01/20 08:08:13;;;;;;;16.95;8.98;;;;;;;;;;5072978;28;20044;-85
2024/01/20 08:10:41;;;;;;;31.50;22.17;;;;;;;;;;5074647;28;20516;-85
2024/01/20 08:13:09;;;;;;;19.17;11.80;;;;;;;;;;5073305;28;20052;-85
2024/01/20 08:15:36;;;;;;;21.02;11.30;;;;;;;;;;5073120;28;20052;-85
2024/01/20 08:18:04;;;;;;;22.70;11.23;;;;;;;;;;5065193;28;20387;-84
2024/01/20 08:20:31;;;;;;;31.00;14.05;;;;;;;;;;5074264;28;20414;-85
2024/01/20 08:22:59;;;;;;;32.72;13.18;;;;;;;;;;5076461;28;20045;-84
2024/01/20 08:25:27;;;;;;;32.55;18.45;;;;;;;;;;5071857;28;20053;-84
2024/01/20 08:27:54;;;;;;;32.63;16.95;;;;;;;;;;5071896;28;20062;-84
2024/01/20 08:30:22;;;;;;;29.05;14.65;;;;;;;;;;5071871;28;20056;-84
2024/01/20 08:32:49;;;;;;;30.23;14.38;;;;;;;;;;5071751;28;20133;-84
2024/01/20 08:35:17;;;;;;;30.25;15.68;;;;;;;;;;5071473;28;20060;-84
2024/01/20 08:37:44;;;;;;;42.40;20.25;;;;;;;;;;5072751;28;20490;-84
2024/01/20 08:40:12;;;;;;;43.33;22.35;;;;;;;;;;5072848;28;20079;-86
2024/01/20 08:42:39;;;;;;;42.17;20.70;;;;;;;;;;5071792;28;20044;-84
2024/01/20 08:45:06;;;;;;;52.75;22.83;;;;;;;;;;5071849;28;20071;-84
2024/01/20 08:47:35;;;;;;;54.70;26.20;;;;;;;;;;5071787;28;20079;-84
2024/01/20 08:50:02;;;;;;;47.38;24.13;;;;;;;;;;5075405;28;20052;-85
2024/01/20 08:52:30;;;;;;;50.80;24.90;;;;;;;;;;5076019;28;20071;-84
2024/01/20 08:54:57;;;;;;;33.72;17.40;;;;;;;;;;5075157;28;20510;-84
2024/01/20 08:57:24;;;;;;;40.97;20.85;;;;;;;;;;5075582;28;20053;-84
2024/01/20 08:59:52;;;;;;;30.88;14.68;;;;;;;;;;5076627;28;20095;-84
2024/01/20 09:02:19;;;;;;;37.83;18.52;;;;;;;;;;5075370;28;20045;-85
2024/01/20 09:04:46;;;;;;;40.47;22.23;;;;;;;;;;5075052;28;20049;-84
2024/01/20 09:07:13;;;;;;;39.97;25.27;;;;;;;;;;5075064;28;20181;-84
2024/01/20 09:09:41;;;;;;;37.67;23.55;;;;;;;;;;5074961;28;20056;-84
2024/01/20 09:12:09;;;;;;;46.72;28.35;;;;;;;;;;5075684;28;20083;-84
2024/01/20 09:14:36;;;;;;;39.15;21.23;;;;;;;;;;5075997;28;20131;-84
2024/01/20 09:17:04;;;;;;;27.98;15.23;;;;;;;;;;5074533;28;20044;-84
2024/01/20 09:19:31;;;;;;;32.38;19.30;;;;;;;;;;5075455;28;20048;-84
2024/01/20 09:21:59;;;;;;;28.88;16.83;;;;;;;;;;5075232;28;20041;-84
2024/01/20 09:24:26;;;;;;;24.58;12.57;;;;;;;;;;5076397;28;20094;-84
2024/01/20 09:26:53;;;;;;;24.00;11.95;;;;;;;;;;5074933;28;20072;-84
2024/01/20 09:29:21;;;;;;;21.52;11.57;;;;;;;;;;5074656;28;20087;-85
2024/01/20 09:31:48;;;;;;;30.45;16.42;;;;;;;;;;5074750;28;20098;-84
2024/01/20 09:34:16;;;;;;;30.52;14.02;;;;;;;;;;5074417;28;20063;-84
2024/01/20 09:36:43;;;;;;;30.02;15.32;;;;;;;;;;5074541;28;20047;-84
2024/01/20 09:39:12;;;;;;;23.90;12.85;;;;;;;;;;5074700;28;20044;-84
2024/01/20 09:41:40;;;;;;;27.10;13.15;;;;;;;;;;5074771;28;20053;-84
2024/01/20 09:44:09;;;;;;;19.00;11.23;;;;;;;;;;5072385;28;20044;-85
2024/01/20 09:46:37;;;;;;;21.30;11.15;;;;;;;;;;5068495;28;20049;-84
2024/01/20 09:49:04;;;;;;;18.77;11.32;;;;;;;;;;5074409;28;20494;-84
2024/01/20 09:51:31;;;;;;;18.45;10.60;;;;;;;;;;5074365;28;20060;-84
2024/01/20 09:53:59;;;;;;;17.00;9.38;;;;;;;;;;5073980;28;20079;-84
2024/01/20 09:56:28;;;;;;;14.63;9.55;;;;;;;;;;5074121;28;20561;-84
2024/01/20 09:59:00;;;;;;;25.58;10.43;;;;;;;;;;5076404;28;20078;-82
2024/01/20 10:01:27;;;;;;;17.00;9.63;;;;;;;;;;5076389;28;20118;-81
2024/01/20 10:03:58;;;;;;;17.23;9.23;;;;;;;;;;5074336;28;20048;-84
2024/01/20 10:06:26;;;;;;;17.08;10.30;;;;;;;;;;5073711;28;20052;-85
2024/01/20 10:08:54;;;;;;;16.48;9.35;;;;;;;;;;5074003;28;20048;-84
2024/01/20 10:11:22;;;;;;;15.52;9.57;;;;;;;;;;5066360;28;20056;-84
2024/01/20 10:13:52;;;;;;;20.88;9.60;;;;;;;;;;5074263;28;20551;-85
2024/01/20 10:16:20;;;;;;;21.20;10.60;;;;;;;;;;5066416;28;20056;-85
2024/01/20 10:18:49;;;;;;;23.10;12.95;;;;;;;;;;5073882;28;20144;-86
2024/01/20 10:21:16;;;;;;;19.55;12.05;;;;;;;;;;5073705;28;20044;-87
2024/01/20 10:23:44;;;;;;;16.15;9.93;;;;;;;;;;5073524;28;20041;-88
2024/01/20 10:26:11;;;;;;;11.98;9.10;;;;;;;;;;5073772;28;20105;-88
2024/01/20 10:28:38;;;;;;;15.05;8.88;;;;;;;;;;5073562;28;20064;-89
2024/01/20 10:31:07;;;;;;;8.48;5.80;;;;;;;;;;5073732;28;20052;-89
2024/01/20 10:33:34;;;;;;;9.07;6.65;;;;;;;;;;5073157;28;20053;-90
2024/01/20 10:36:03;;;;;;;7.15;5.05;;;;;;;;;;5070842;28;20059;-90
2024/01/20 10:38:33;;;;;;;8.45;5.95;;;;;;;;;;5073439;28;20123;-90
2024/01/20 10:41:01;;;;;;;5.78;4.70;;;;;;;;;;5073334;28;20048;-90
2024/01/20 10:43:34;;;;;;;6.97;4.88;;;;;;;;;;5073347;28;20041;-90
2024/01/20 10:46:02;;;;;;;;;;;;;;;;;;5073704;28;20075;-90
2024/01/20 10:48:34;;;;;;;6.50;4.82;;;;;;;;;;5073492;28;19920;-89
2024/01/20 10:51:05;;;;;;;6.43;5.00;;;;;;;;;;5072778;28;20577;-89
2024/01/20 10:53:32;;;;;;;9.18;5.13;;;;;;;;;;5073132;28;20078;-90
2024/01/20 10:56:00;;;;;;;7.15;5.15;;;;;;;;;;5072828;28;20067;-91
2024/01/20 10:58:33;;;;;;;7.47;5.40;;;;;;;;;;5072673;28;20048;-90
2024/01/20 11:01:00;;;;;;;7.95;5.38;;;;;;;;;;5073230;28;20044;-89
2024/01/20 11:03:28;;;;;;;7.30;4.50;;;;;;;;;;5072958;28;20056;-88
2024/01/20 11:05:55;;;;;;;5.75;4.78;;;;;;;;;;5073253;28;20079;-87
2024/01/20 11:08:27;;;;;;;5.90;5.07;;;;;;;;;;5073461;28;20044;-86
2024/01/20 11:10:54;;;;;;;7.38;4.68;;;;;;;;;;5073365;28;20062;-85
2024/01/20 11:13:28;;;;;;;6.28;4.45;;;;;;;;;;5063859;28;20139;-84
2024/01/20 11:15:57;;;;;;;7.78;5.40;;;;;;;;;;5054203;28;20087;-84
2024/01/20 11:18:26;;;;;;;6.07;4.28;;;;;;;;;;5062772;28;20052;-85
2024/01/20 11:21:01;;;;;;;4.80;4.30;;;;;;;;;;5078869;28;20139;-85
2024/01/20 11:23:29;;;;;;;6.38;4.30;;;;;;;;;;5079425;28;20409;-85
2024/01/20 11:25:57;;;;;;;4.63;4.15;;;;;;;;;;5079992;28;20052;-85
2024/01/20 11:28:32;;;;;;;4.20;3.85;;;;;;;;;;5080342;28;20052;-81
2024/01/20 11:30:59;;;;;;;7.07;4.43;;;;;;;;;;5077585;28;20052;-81
2024/01/20 11:33:27;;;;;;;5.05;4.55;;;;;;;;;;5077527;28;20048;-81
2024/01/20 11:35:55;;;;;;;4.95;4.32;;;;;;;;;;5077733;28;20045;-80
2024/01/20 11:38:23;;;;;;;7.07;4.10;;;;;;;;;;5076301;28;20123;-81
2024/01/20 11:41:03;;;;;;;6.45;3.95;;;;;;;;;;5076622;28;20053;-80
2024/01/20 11:43:30;;;;;;;5.13;4.35;;;;;;;;;;5062462;28;20472;-81
2024/01/20 11:45:57;;;;;;;5.95;4.65;;;;;;;;;;5075826;28;20053;-81
2024/01/20 11:48:25;;;;;;;4.15;3.72;;;;;;;;;;5075279;28;20048;-80
2024/01/20 11:50:53;;;;;;;4.22;3.83;;;;;;;;;;5073847;28;20127;-80
2024/01/20 11:53:20;;;;;;;4.65;4.15;;;;;;;;;;5075111;28;20060;-79
2024/01/20 11:55:54;;;;;;;4.82;3.85;;;;;;;;;;5073140;28;20498;-79
2024/01/20 11:58:21;;;;;;;;;;;;;;;;;;5064661;28;20421;-80
2024/01/20 12:00:51;;;;;;;4.30;3.88;;;;;;;;;;5071809;28;19928;-79
2024/01/20 12:03:19;;;;;;;4.65;4.25;;;;;;;;;;5073053;28;20049;-79
2024/01/20 12:05:47;;;;;;;5.13;4.32;;;;;;;;;;5073210;28;20123;-79
2024/01/20 12:08:14;;;;;;;6.65;5.03;;;;;;;;;;5071774;28;20044;-79
2024/01/20 12:10:45;;;;;;;5.03;4.53;;;;;;;;;;5073085;28;20048;-78
2024/01/20 12:13:12;;;;;;;6.53;4.57;;;;;;;;;;5071358;28;20052;-78
2024/01/20 12:15:43;;;;;;;4.80;4.25;;;;;;;;;;5072676;28;20105;-78
2024/01/20 12:18:10;;;;;;;6.25;4.25;;;;;;;;;;5064621;28;20088;-78
2024/01/20 12:20:38;;;;;;;5.85;5.20;;;;;;;;;;5071636;28;20407;-78
2024/01/20 12:23:05;;;;;;;5.85;4.60;;;;;;;;;;5074709;28;20106;-78
2024/01/20 12:25:33;;;;;;;6.07;4.78;;;;;;;;;;5079270;28;20427;-77
2024/01/20 12:28:01;;;;;;;6.43;5.13;;;;;;;;;;5078029;28;20060;-78
2024/01/20 12:30:29;;;;;;;8.13;4.63;;;;;;;;;;5079261;28;20048;-77
2024/01/20 12:32:56;;;;;;;6.38;5.00;;;;;;;;;;5077868;28;20110;-77
2024/01/20 12:35:25;;;;;;;7.43;4.88;;;;;;;;;;5079367;28;20044;-76
2024/01/20 12:37:52;;;;;;;5.53;4.47;;;;;;;;;;5079052;28;20080;-77
2024/01/20 12:40:19;;;;;;;5.22;4.72;;;;;;;;;;5070993;28;20048;-77
2024/01/20 12:42:47;;;;;;;10.02;5.60;;;;;;;;;;5083891;28;20048;-80
2024/01/20 12:45:15;;;;;;;5.85;5.00;;;;;;;;;;5079719;28;20056;-77
2024/01/20 12:47:43;;;;;;;7.40;4.97;;;;;;;;;;5078000;28;20490;-76
2024/01/20 12:50:11;;;;;;;6.35;5.35;;;;;;;;;;5078930;28;20053;-77
2024/01/20 12:52:38;;;;;;;5.63;4.35;;;;;;;;;;5078945;28;20053;-77
2024/01/20 12:55:06;;;;;;;6.72;4.90;;;;;;;;;;5079193;28;20056;-77
2024/01/20 12:57:33;;;;;;;6.65;4.63;;;;;;;;;;5079018;28;20090;-77
2024/01/20 13:00:02;;;;;;;5.22;4.43;;;;;;;;;;5082272;28;20052;-79
2024/01/20 13:02:29;;;;;;;6.28;4.95;;;;;;;;;;5086177;28;20498;-79
2024/01/20 13:04:57;;;;;;;8.40;5.00;;;;;;;;;;5085358;28;20056;-78
2024/01/20 13:07:24;;;;;;;7.45;5.03;;;;;;;;;;5085481;28;20116;-78
2024/01/20 13:09:51;;;;;;;5.13;4.57;;;;;;;;;;5084117;28;20049;-78
2024/01/20 13:12:19;;;;;;;6.65;5.00;;;;;;;;;;5083303;28;20555;-78
2024/01/20 13:14:46;;;;;;;7.57;4.88;;;;;;;;;;5084679;28;20581;-78
2024/01/20 13:17:15;;;;;;;6.10;4.43;;;;;;;;;;5084676;28;20148;-78
2024/01/20 13:19:42;;;;;;;5.30;4.72;;;;;;;;;;5083781;28;20055;-78
2024/01/20 13:22:12;;;;;;;7.10;5.25;;;;;;;;;;5085189;28;20041;-78
2024/01/20 13:24:39;;;;;;;6.25;5.38;;;;;;;;;;5085677;28;20040;-78
2024/01/20 13:27:06;;;;;;;7.35;5.63;;;;;;;;;;5085281;28;20057;-78
2024/01/20 13:29:33;;;;;;;7.32;5.18;;;;;;;;;;5084483;28;20095;-78
2024/01/20 13:32:01;;;;;;;7.20;5.32;;;;;;;;;;5083923;28;20048;-78
2024/01/20 13:34:28;;;;;;;6.57;4.90;;;;;;;;;;5082163;28;20059;-78
2024/01/20 13:36:56;;;;;;;7.13;4.80;;;;;;;;;;5081406;28;20071;-78
2024/01/20 13:39:23;;;;;;;7.72;6.30;;;;;;;;;;5081978;28;20071;-78
2024/01/20 13:41:50;;;;;;;6.50;4.80;;;;;;;;;;5081749;28;20138;-78
2024/01/20 13:44:18;;;;;;;6.72;5.60;;;;;;;;;;5082764;28;20050;-78
2024/01/20 13:46:45;;;;;;;6.20;5.20;;;;;;;;;;5081413;28;20052;-78
2024/01/20 13:49:12;;;;;;;5.70;4.60;;;;;;;;;;5082817;28;20098;-78
2024/01/20 13:51:40;;;;;;;7.82;5.15;;;;;;;;;;5081679;28;20056;-78
2024/01/20 13:54:08;;;;;;;16.52;9.15;;;;;;;;;;5081892;28;20079;-78
2024/01/20 13:56:35;;;;;;;8.50;5.50;;;;;;;;;;5081661;28;20079;-78
2024/01/20 13:59:03;;;;;;;7.60;5.40;;;;;;;;;;5081170;28;20048;-78
2024/01/20 14:01:30;;;;;;;8.65;5.85;;;;;;;;;;5081696;28;20460;-78
2024/01/20 14:03:59;;;;;;;7.38;5.15;;;;;;;;;;5080249;28;20048;-78
2024/01/20 14:06:27;;;;;;;7.68;5.70;;;;;;;;;;5078769;28;20075;-77
2024/01/20 14:08:55;;;;;;;7.45;5.95;;;;;;;;;;5078208;28;20053;-77
2024/01/20 14:11:23;;;;;;;10.15;6.05;;;;;;;;;;5077511;28;20052;-77
2024/01/20 14:13:50;;;;;;;12.30;6.05;;;;;;;;;;5078387;28;20056;-77
2024/01/20 14:16:18;;;;;;;10.27;6.20;;;;;;;;;;5077927;28;20453;-77
2024/01/20 14:18:45;;;;;;;9.07;6.10;;;;;;;;;;5077815;28;20461;-77
2024/01/20 14:21:12;;;;;;;8.48;6.47;;;;;;;;;;5078028;28;20143;-77
2024/01/20 14:23:39;;;;;;;10.18;6.32;;;;;;;;;;5077704;28;20483;-77
2024/01/20 14:26:07;;;;;;;9.32;6.15;;;;;;;;;;5076976;28;20055;-77
2024/01/20 14:28:34;;;;;;;8.18;6.50;;;;;;;;;;5076390;28;20044;-77
2024/01/20 14:31:01;;;;;;;8.57;6.68;;;;;;;;;;5077222;28;20057;-76
2024/01/20 14:33:29;;;;;;;8.35;5.60;;;;;;;;;;5077424;28;20105;-77